MST,Max TemperatureF,Mean TemperatureF,Min TemperatureF,Max Dew PointF,MeanDew PointF,Min DewpointF,Max Humidity, Mean Humidity, Min Humidity, Max Sea Level PressureIn, Mean Sea Level PressureIn, Min Sea Level PressureIn, Max VisibilityMiles, Mean VisibilityMiles, Min VisibilityMiles, Max Wind SpeedMPH, Mean Wind SpeedMPH, Max Gust SpeedMPH,PrecipitationIn, CloudCover, Events, WindDirDegrees
2013-1-1,28,13,-2,25,15,-6,100,90,78,30.09,30.03,29.97,10,8,0,24,10,31,0.00,5,,243
2013-1-2,28,24,19,25,18,12,86,81,74,30.33,30.17,30.03,10,10,6,24,16,31,0.00,8,,302
2013-1-3,21,14,6,16,8,3,100,79,67,30.30,30.14,30.06,10,10,10,24,8,24,0.00,0,,205
2013-1-4,33,17,1,23,9,-2,100,80,56,30.09,30.02,29.94,10,10,10,20,5,24,0.00,0,,207
2013-1-5,26,19,12,18,13,7,92,77,69,30.20,30.13,29.98,10,10,10,26,13,32,0.00,1,,265
2013-1-6,33,20,6,25,14,1,100,81,60,30.15,29.89,29.77,10,10,10,23,9,28,0.00,0,,204
2013-1-7,33,22,10,23,18,9,100,73,60,29.87,29.80,29.64,10,10,10,25,16,30,0.00,1,,243
2013-1-8,37,29,21,30,24,16,100,78,69,30.01,29.75,29.56,10,9,0,23,13,32,0.00,3,,256
2013-1-9,35,25,15,28,21,10,93,80,63,30.05,29.90,29.69,10,10,10,18,8,23,0.00,1,,199
2013-1-10,35,27,19,30,25,18,93,86,75,29.68,29.60,29.50,10,9,2,25,9,26,0.00,3,,345
2013-1-11,19,10,1,18,7,-2,93,85,78,30.04,29.81,29.67,10,2,0,29,17,36,0.00,8,,353
2013-1-12,8,0,-9,0,-7,-18,100,76,50,30.21,30.15,30.05,10,10,5,21,12,24,0.00,2,,277
2013-1-13,6,-2,-11,1,-4,-22,100,81,50,30.21,30.18,30.14,10,9,3,12,5,,0.00,7,,272
2013-1-14,12,2,-7,10,1,-15,100,84,71,30.19,30.10,29.95,10,10,10,13,5,,0.00,7,,208
2013-1-15,37,24,10,34,24,3,100,83,73,29.94,29.82,29.73,10,9,3,26,12,37,0.04,7,,241
2013-1-16,37,32,28,30,29,25,93,80,70,30.23,30.00,29.78,10,10,10,24,15,32,0.00,8,,295
2013-1-17,37,32,28,32,28,23,93,81,75,30.31,30.13,29.83,10,10,10,14,8,,0.00,6,,189
2013-1-18,41,36,32,28,28,27,80,68,61,29.83,29.78,29.74,10,10,10,23,16,29,0.00,1,,275
2013-1-19,37,22,8,30,10,-2,85,71,62,30.37,30.21,29.84,10,9,1,24,13,30,0.00,7,,332
2013-1-20,12,0,-11,7,-8,-22,85,70,54,30.60,30.48,30.28,10,8,1,22,10,26,0.00,3,,322
2013-1-21,6,0,-5,1,-7,-15,79,68,52,30.45,30.31,30.19,10,9,1,15,6,18,0.00,6,,266
2013-1-22,19,12,6,14,6,1,85,79,68,30.22,30.14,30.09,10,10,9,12,3,,0.00,6,,275
2013-1-23,8,4,1,3,-1,-6,92,72,56,30.44,30.34,30.20,10,10,10,14,8,,0.00,2,,47
2013-1-24,33,20,8,25,11,1,93,78,69,30.16,29.99,29.85,10,10,2,21,13,26,0.00,3,,185
2013-1-25,26,16,6,18,11,3,100,83,68,30.14,30.04,29.91,10,10,4,7,2,,0.00,1,,49
2013-1-26,39,28,17,28,22,16,100,85,65,29.91,29.85,29.78,10,10,5,8,2,,0.01,2,,346
2013-1-27,35,26,17,32,24,18,100,92,80,29.79,29.76,29.72,10,7,2,13,5,,0.00,5,,323
2013-1-28,35,25,15,27,22,12,93,80,60,29.81,29.78,29.73,10,10,10,12,4,,0.00,2,,218
2013-1-29,19,8,-2,19,5,-11,100,83,66,30.22,29.93,29.69,10,7,0,29,8,37,0.00,7,,324
2013-1-30,-2,-6,-9,-8,-12,-18,84,72,55,30.19,30.04,29.95,10,9,2,20,7,24,0.00,7,,335
2013-1-31,6,-5,-16,1,-16,-26,84,66,54,30.37,30.25,30.01,10,10,4,20,12,,0.00,3,,255